Thermopolis, Wyoming
Current Conditions -  °F | °C
As of 3:15 AM on Monday 26 Jan 2015 (Local Time) from KTBX Reporting Station
Clear Clear  
Wind Chill: 52°   Ceiling: Unl
Heat Index: 52°   Visibility: 10mi
Dew Point: 16°   Wind: 5mph
Humidity: 24%   Direction: 190°S
Pressure: 30.37"   Gusts: NA
Location:  43.65°N, 108.21°W
Report Text: KTBX 261015Z AUTO 19004KT 10SM CLR 11/M09 A3037 RMK AO2
Loading
Personal Weather Stations






























Interactive Weather Map New forecast layout! Learn more

10-Day Weather Forecast

Advertisements
Track Severe Weather on mobile